Time;durP1;ratioP1;P1;durP2;ratioP2;P2;SDS_P1;SDS_P2;PMS_P1;PMS_P2;Temp;Humidity;BMP_temperature;BMP_pressure;BME280_temperature;BME280_humidity;BME280_pressure;Samples;Min_cycle;Max_cycle;Signal;HPM_P1;HPM_P2
2022/04/04 00:01:51;;;;;;;2.50;1.30;;;;;;;19.29;38.94;96918.31;10298498;28;20490;-52
2022/04/04 00:07:11;;;;;;;1.38;1.10;;;;;;;19.27;38.86;96915.13;10286665;28;20070;-55
2022/04/04 00:12:30;;;;;;;1.80;1.00;;;;;;;19.26;38.98;96918.94;10273762;28;20101;-53
2022/04/04 00:17:50;;;;;;;1.52;1.00;;;;;;;19.25;39.10;96918.16;10281880;28;20065;-55
2022/04/04 00:23:13;;;;;;;1.83;0.95;;;;;;;19.23;39.00;96914.97;10292586;28;20058;-55
2022/04/04 00:28:33;;;;;;;1.42;1.00;;;;;;;19.22;38.84;96901.78;10293607;28;20047;-53
2022/04/04 00:33:52;;;;;;;1.25;1.15;;;;;;;19.20;38.89;96904.81;10292540;28;20054;-55
2022/04/04 00:39:16;;;;;;;0.95;0.82;;;;;;;19.21;38.82;96905.59;10292741;28;20055;-52
2022/04/04 00:44:35;;;;;;;2.25;1.20;;;;;;;19.17;38.83;96900.06;10294001;28;20058;-55
2022/04/04 00:49:54;;;;;;;1.08;0.98;;;;;;;19.17;38.77;96890.03;10288590;28;20058;-55
2022/04/04 00:55:14;;;;;;;3.10;1.10;;;;;;;19.16;38.68;96893.06;10294643;28;20468;-53
2022/04/04 01:00:33;;;;;;;1.20;1.10;;;;;;;19.13;38.65;96889.09;10296696;28;20055;-54
2022/04/04 01:05:55;;;;;;;1.15;1.00;;;;;;;19.12;38.80;96882.09;10288634;28;20055;-55
2022/04/04 01:11:15;;;;;;;1.50;1.00;;;;;;;19.10;38.85;96881.63;10287481;28;20049;-54
2022/04/04 01:16:34;;;;;;;1.58;1.00;;;;;;;19.10;38.77;96883.53;10289507;28;20055;-55
2022/04/04 01:21:53;;;;;;;1.30;1.00;;;;;;;19.08;38.64;96875.75;10300395;28;20042;-55
2022/04/04 01:27:13;;;;;;;1.48;1.02;;;;;;;19.07;38.80;96873.34;10275003;28;20074;-55
2022/04/04 01:32:34;;;;;;;1.65;1.10;;;;;;;19.05;38.62;96867.47;10289483;28;20446;-56
2022/04/04 01:37:53;;;;;;;1.75;0.98;;;;;;;19.04;38.59;96866.69;10284990;28;20113;-53
2022/04/04 01:43:13;;;;;;;1.65;0.90;;;;;;;19.03;38.66;96862.38;10291169;28;20081;-55
2022/04/04 01:48:36;;;;;;;0.98;0.80;;;;;;;19.01;38.60;96859.22;10288768;28;20458;-56
2022/04/04 01:53:55;;;;;;;1.35;1.08;;;;;;;19.01;38.65;96853.03;10287156;28;20050;-55
2022/04/04 01:59:15;;;;;;;1.50;1.10;;;;;;;18.99;38.43;96845.25;10277425;28;20205;-56
2022/04/04 02:04:35;;;;;;;1.20;1.10;;;;;;;18.97;38.61;96842.06;10302733;28;20046;-56
2022/04/04 02:09:58;;;;;;;1.65;1.00;;;;;;;18.96;38.66;96841.28;10287310;28;20055;-54
2022/04/04 02:15:17;;;;;;;1.13;0.88;;;;;;;18.94;38.63;96835.41;10290821;28;20054;-55
2022/04/04 02:20:38;;;;;;;1.25;0.98;;;;;;;18.93;38.39;96838.44;10288284;28;20135;-52
2022/04/04 02:25:58;;;;;;;1.05;0.95;;;;;;;18.92;38.47;96829.53;10294236;28;20051;-52
2022/04/04 02:31:17;;;;;;;1.27;1.00;;;;;;;18.91;38.44;96827.16;10285933;28;20062;-54
2022/04/04 02:36:37;;;;;;;1.50;0.80;;;;;;;18.88;38.33;96820.50;10299076;28;20035;-55
2022/04/04 02:41:56;;;;;;;2.40;1.00;;;;;;;18.88;38.48;96817.00;10301399;28;20093;-54
2022/04/04 02:47:16;;;;;;;0.93;0.82;;;;;;;18.87;38.43;96805.41;10291545;28;20034;-54
2022/04/04 02:52:36;;;;;;;1.63;0.80;;;;;;;18.85;38.42;96807.63;10286192;28;20058;-53
2022/04/04 02:57:56;;;;;;;1.08;0.98;;;;;;;18.83;38.37;96806.38;10289411;28;20509;-55
2022/04/04 03:03:16;;;;;;;1.10;1.00;;;;;;;18.82;38.37;96802.06;10292521;28;20043;-54
2022/04/04 03:08:36;;;;;;;0.80;0.80;;;;;;;18.80;38.28;96797.00;10287290;28;20090;-56
2022/04/04 03:13:55;;;;;;;1.08;0.98;;;;;;;18.79;38.32;96803.47;10286035;28;20062;-54
2022/04/04 03:19:15;;;;;;;0.88;0.75;;;;;;;18.77;38.41;96794.91;10287974;28;20046;-54
2022/04/04 03:24:35;;;;;;;1.17;0.90;;;;;;;18.76;38.34;96791.41;10295047;28;20656;-55
2022/04/04 03:29:55;;;;;;;0.90;0.80;;;;;;;18.76;38.32;96791.41;10272665;28;20058;-54
2022/04/04 03:35:14;;;;;;;1.08;0.85;;;;;;;18.74;38.18;96793.66;10298777;28;20053;-54
2022/04/04 03:40:34;;;;;;;1.08;0.85;;;;;;;18.72;38.24;96789.69;10300504;28;20041;-55
2022/04/04 03:45:54;;;;;;;1.13;0.80;;;;;;;18.72;38.29;96789.69;10284553;28;20384;-54
2022/04/04 03:51:13;;;;;;;1.15;1.00;;;;;;;18.70;38.18;96783.78;10299269;28;20045;-55
2022/04/04 03:56:33;;;;;;;0.85;0.85;;;;;;;18.69;38.15;96791.09;10285136;28;20053;-56
2022/04/04 04:01:53;;;;;;;1.30;1.00;;;;;;;18.67;38.20;96790.63;10285880;28;20050;-52
2022/04/04 04:07:17;;;;;;;1.00;0.75;;;;;;;18.68;38.30;96794.09;10283622;28;20070;-55
2022/04/04 04:12:39;;;;;;;1.45;1.20;;;;;;;18.67;38.38;96787.91;10282643;28;20051;-53
2022/04/04 04:17:59;;;;;;;0.82;0.82;;;;;;;18.67;38.68;96793.31;10284283;28;20102;-56
2022/04/04 04:23:18;;;;;;;2.00;0.90;;;;;;;18.69;38.76;96780.31;10283185;28;20043;-55
2022/04/04 04:28:37;;;;;;;0.88;0.80;;;;;;;18.69;38.77;96788.41;10282013;28;20098;-55
2022/04/04 04:33:58;;;;;;;1.15;0.77;;;;;;;18.70;38.82;96779.22;10285208;28;20043;-52
2022/04/04 04:39:18;;;;;;;1.00;0.90;;;;;;;18.72;39.10;96782.38;10283431;28;20470;-56
2022/04/04 04:44:38;;;;;;;1.40;0.68;;;;;;;18.75;39.26;96776.31;10281919;28;20494;-59
2022/04/04 04:49:58;;;;;;;2.33;0.80;;;;;;;18.79;39.23;96773.78;10283224;28;20050;-58
2022/04/04 04:55:21;;;;;;;1.10;0.80;;;;;;;18.81;39.46;96778.91;10297204;28;20047;-57
2022/04/04 05:00:41;;;;;;;3.85;2.67;;;;;;;18.38;26.85;96788.56;10289353;28;20054;-54
2022/04/04 05:06:00;;;;;;;3.63;2.97;;;;;;;15.52;23.16;96778.28;10288564;28;20062;-56
2022/04/04 05:11:21;;;;;;;3.30;2.30;;;;;;;16.80;31.02;96776.34;10306699;28;20046;-53
2022/04/04 05:16:50;;;;;;;39.25;7.82;;;;;;;17.56;32.69;96780.09;10290181;28;20113;-56
2022/04/04 05:22:10;;;;;;;;;;;;;;;18.01;33.34;96781.84;10281410;28;20058;-54
2022/04/04 05:27:30;;;;;;;22.02;6.00;;;;;;;18.25;33.88;96781.41;10288555;28;20498;-57
2022/04/04 05:32:49;;;;;;;21.35;6.00;;;;;;;18.41;34.15;96777.16;10285099;28;20046;-57
2022/04/04 05:38:09;;;;;;;27.90;6.07;;;;;;;18.54;34.36;96770.00;10283829;28;20435;-56
2022/04/04 05:43:29;;;;;;;22.98;6.07;;;;;;;18.64;34.61;96775.09;10287300;28;20043;-54
2022/04/04 05:48:48;;;;;;;15.45;5.47;;;;;;;18.73;34.59;96777.75;10284534;28;20530;-54
2022/04/04 05:54:09;;;;;;;17.13;5.57;;;;;;;18.81;34.87;96774.28;10297990;28;20039;-57
2022/04/04 05:59:28;;;;;;;17.02;5.28;;;;;;;18.89;34.88;96775.41;10290173;28;20054;-56
2022/04/04 06:04:49;;;;;;;18.92;5.57;;;;;;;18.94;35.10;96772.53;10283945;28;20054;-55
2022/04/04 06:10:10;;;;;;;15.30;5.50;;;;;;;18.99;35.04;96774.25;10287084;28;20054;-56
2022/04/04 06:15:30;;;;;;;16.02;5.32;;;;;;;19.02;35.27;96776.34;10289419;28;20544;-53
2022/04/04 06:20:50;;;;;;;16.15;4.93;;;;;;;19.04;35.41;96772.19;10289522;28;20059;-55
2022/04/04 06:26:09;;;;;;;18.20;5.55;;;;;;;19.08;35.52;96770.44;10287613;28;20062;-55
2022/04/04 06:31:28;;;;;;;11.88;4.88;;;;;;;19.10;35.61;96779.00;10288026;28;20490;-56
2022/04/04 06:36:48;;;;;;;16.35;5.00;;;;;;;19.13;35.86;96780.25;10288727;28;20067;-56
2022/04/04 06:42:08;;;;;;;14.23;4.85;;;;;;;19.16;35.82;96764.22;10287456;28;20446;-54
2022/04/04 06:47:29;;;;;;;9.85;4.28;;;;;;;19.17;35.92;96782.00;10290488;28;20058;-56
2022/04/04 06:52:48;;;;;;;11.60;4.05;;;;;;;19.20;36.26;96764.38;10290497;28;20062;-56
2022/04/04 06:58:08;;;;;;;12.52;4.43;;;;;;;19.22;36.25;96766.75;10277321;28;20504;-54
2022/04/04 07:03:28;;;;;;;12.88;4.63;;;;;;;19.24;36.46;96759.91;10294178;28;20047;-57
2022/04/04 07:08:47;;;;;;;11.30;4.50;;;;;;;19.24;36.47;96753.72;10286402;28;20059;-57
2022/04/04 07:14:07;;;;;;;9.88;4.25;;;;;;;19.26;36.54;96754.19;10288226;28;20050;-55
2022/04/04 07:19:32;;;;;;;10.27;4.15;;;;;;;19.27;36.66;96747.69;10282724;28;20418;-57
2022/04/04 07:24:52;;;;;;;8.45;3.63;;;;;;;19.27;36.47;96748.47;10266400;28;20046;-56
2022/04/04 07:30:14;;;;;;;8.60;3.25;;;;;;;19.29;36.66;96748.16;10302272;28;20049;-54
2022/04/04 07:35:33;;;;;;;10.43;4.00;;;;;;;19.28;36.74;96743.84;10289728;28;20055;-54
2022/04/04 07:40:53;;;;;;;9.73;3.67;;;;;;;19.29;36.59;96743.53;10302126;28;20043;-56
2022/04/04 07:46:12;;;;;;;6.78;2.92;;;;;;;19.30;36.85;96741.63;10289094;28;20491;-54
2022/04/04 07:51:33;;;;;;;7.55;3.17;;;;;;;19.30;36.80;96737.00;10301531;28;20051;-54
2022/04/04 07:56:56;;;;;;;6.00;3.03;;;;;;;19.31;36.70;96727.00;10279996;28;20074;-54
2022/04/04 08:02:15;;;;;;;7.38;3.42;;;;;;;19.30;36.65;96723.50;10290437;28;20055;-57
2022/04/04 08:07:36;;;;;;;7.13;3.03;;;;;;;19.32;36.77;96723.97;10285417;28;20068;-55
2022/04/04 08:12:56;;;;;;;7.47;3.03;;;;;;;19.32;36.88;96717.78;10287410;28;20065;-57
2022/04/04 08:18:15;;;;;;;7.43;2.92;;;;;;;19.32;36.84;96713.16;10289020;28;20080;-56
2022/04/04 08:23:35;;;;;;;6.80;3.08;;;;;;;19.32;36.77;96704.25;10284274;28;20510;-56
2022/04/04 08:28:54;;;;;;;6.40;2.55;;;;;;;19.33;36.99;96705.88;10285566;28;20066;-55
2022/04/04 08:34:13;;;;;;;8.25;2.95;;;;;;;19.32;37.07;96688.06;10301445;28;20042;-56
2022/04/04 08:39:33;;;;;;;6.78;2.72;;;;;;;19.33;36.88;96697.75;10313568;28;20042;-54
2022/04/04 08:45:00;;;;;;;4.63;2.42;;;;;;;19.31;37.12;96681.88;10306794;28;20043;-57
2022/04/04 08:50:19;;;;;;;6.93;2.70;;;;;;;19.32;37.15;96671.84;10292211;28;20038;-57
2022/04/04 08:55:39;;;;;;;6.20;3.00;;;;;;;19.31;37.06;96659.47;10305718;28;20042;-57
2022/04/04 09:00:59;;;;;;;7.40;3.08;;;;;;;19.31;37.12;96657.56;10300033;28;20047;-57
2022/04/04 09:06:20;;;;;;;6.20;2.83;;;;;;;19.32;37.12;96647.53;10294220;28;20105;-56
2022/04/04 09:11:41;;;;;;;5.40;2.70;;;;;;;19.30;37.16;96641.69;10306110;28;20125;-57
2022/04/04 09:17:01;;;;;;;4.20;2.40;;;;;;;19.30;37.14;96637.06;10275370;28;20491;-56
2022/04/04 09:22:22;;;;;;;4.88;2.50;;;;;;;19.30;37.14;96628.16;10305128;28;20046;-57
2022/04/04 09:27:41;;;;;;;5.00;2.40;;;;;;;19.30;37.28;96611.97;10290350;28;20065;-55
2022/04/04 09:33:01;;;;;;;6.07;2.60;;;;;;;19.29;37.34;96596.91;10292541;28;20054;-57
2022/04/04 09:38:20;;;;;;;4.25;2.53;;;;;;;19.29;37.27;96600.38;10293665;28;20391;-56
2022/04/04 09:43:56;;;;;;;4.22;2.08;;;;;;;19.27;37.11;96585.63;10292014;28;20049;-57
2022/04/04 09:49:17;;;;;;;3.50;2.08;;;;;;;19.29;37.44;96589.56;10290927;28;20139;-56
2022/04/04 09:54:41;;;;;;;4.47;2.25;;;;;;;19.27;37.28;96556.69;10291260;28;20058;-56
2022/04/04 10:00:01;;;;;;;4.85;2.03;;;;;;;19.27;37.33;96564.03;10290830;28;20481;-54
2022/04/04 10:05:21;;;;;;;4.05;2.25;;;;;;;19.27;37.41;96553.22;10302871;28;20677;-57
2022/04/04 10:10:41;;;;;;;4.75;2.20;;;;;;;19.26;37.45;96530.81;10292280;28;20055;-57
2022/04/04 10:16:02;;;;;;;3.47;2.03;;;;;;;19.25;37.40;96531.13;10290780;28;20063;-57
2022/04/04 10:21:21;;;;;;;4.03;2.17;;;;;;;19.25;37.46;96506.81;10291136;28;20490;-57
2022/04/04 10:26:42;;;;;;;4.20;2.00;;;;;;;19.24;37.53;96516.06;10291046;28;20054;-57
2022/04/04 10:32:02;;;;;;;3.65;1.90;;;;;;;19.23;37.49;96493.66;10286119;28;20047;-57
2022/04/04 10:37:28;;;;;;;3.25;1.90;;;;;;;19.23;37.54;96490.16;10284074;28;20058;-56
2022/04/04 10:43:07;;;;;;;3.55;1.90;;;;;;;19.22;37.61;96481.28;10272447;28;20113;-57
2022/04/04 10:48:41;;;;;;;3.00;1.90;;;;;;;19.23;37.71;96469.38;10289191;28;20059;-57
2022/04/04 10:54:01;;;;;;;4.05;1.98;;;;;;;19.19;37.96;96459.53;10301375;28;20788;-58
2022/04/04 10:59:21;;;;;;;13.80;6.15;;;;;;;19.17;38.39;96454.47;10288776;28;20058;-58
2022/04/04 11:10:38;;;;;;;43.07;16.80;;;;;;;19.22;40.80;96437.28;10291273;28;20043;-55
2022/04/04 11:16:01;;;;;;;35.25;13.55;;;;;;;19.24;40.50;96416.13;10286667;28;20309;-57
2022/04/04 11:21:41;;;;;;;37.60;14.15;;;;;;;19.24;41.09;96408.81;10291638;28;20062;-57
2022/04/04 11:27:03;;;;;;;33.63;12.48;;;;;;;19.27;40.67;96397.38;10287179;28;20066;-56
2022/04/04 11:32:33;;;;;;;32.60;12.88;;;;;;;19.29;40.73;96395.13;10284103;28;20419;-57
2022/04/04 11:37:57;;;;;;;30.98;11.90;;;;;;;19.32;40.61;96369.34;10277663;28;20109;-58
2022/04/04 11:43:17;;;;;;;28.40;10.77;;;;;;;19.35;40.69;96366.00;10287755;28;20054;-58
2022/04/04 11:48:51;;;;;;;27.98;11.48;;;;;;;19.37;40.46;96350.25;10297285;28;20478;-59
2022/04/04 11:54:11;;;;;;;26.17;10.80;;;;;;;19.40;40.44;96346.84;10302057;28;20061;-58
2022/04/04 11:59:34;;;;;;;28.85;10.77;;;;;;;19.44;40.27;96334.25;10284145;28;20074;-58
2022/04/04 12:04:56;;;;;;;24.08;10.50;;;;;;;19.46;40.32;96323.13;10294162;28;20127;-58
2022/04/04 12:10:31;;;;;;;28.50;10.70;;;;;;;19.50;40.64;96307.81;10257372;28;20429;-58
2022/04/04 12:15:53;;;;;;;25.65;9.95;;;;;;;19.52;40.03;96295.56;10296753;28;20113;-58
2022/04/04 12:21:12;;;;;;;21.52;9.32;;;;;;;19.56;40.17;96288.38;10292886;28;20054;-58
2022/04/04 12:26:32;;;;;;;24.02;9.75;;;;;;;19.60;40.05;96277.69;10298943;28;20106;-58
2022/04/04 12:31:55;;;;;;;20.95;9.00;;;;;;;19.63;40.10;96252.69;10294718;28;20051;-58
2022/04/04 12:37:15;;;;;;;21.00;9.27;;;;;;;19.66;39.81;96235.00;10291072;28;20066;-57
2022/04/04 12:42:34;;;;;;;21.95;8.43;;;;;;;19.69;39.80;96234.31;10294411;28;20050;-58
2022/04/04 12:48:16;;;;;;;18.63;7.18;;;;;;;19.71;39.74;96213.16;10306305;28;20049;-58
2022/04/04 12:53:49;;;;;;;19.83;8.73;;;;;;;19.74;39.78;96209.81;10294404;28;20112;-59
2022/04/04 12:59:10;;;;;;;18.20;7.60;;;;;;;19.78;39.42;96196.38;10293280;28;20082;-59
2022/04/04 13:04:30;;;;;;;15.57;7.38;;;;;;;19.81;39.32;96195.72;10297455;28;20055;-58
2022/04/04 13:09:52;;;;;;;15.30;7.05;;;;;;;19.84;39.38;96176.91;10289665;28;20051;-58
2022/04/04 13:15:12;;;;;;;15.48;7.30;;;;;;;19.89;39.30;96168.56;10293422;28;20054;-58
2022/04/04 13:20:31;;;;;;;14.77;6.65;;;;;;;19.90;39.13;96156.63;10290967;28;20053;-58
2022/04/04 13:25:51;;;;;;;13.73;6.28;;;;;;;19.94;39.11;96149.41;10291022;28;20085;-58
2022/04/04 13:31:11;;;;;;;14.82;6.65;;;;;;;19.97;39.16;96133.63;10305685;28;20060;-58
2022/04/04 13:36:31;;;;;;;15.55;6.43;;;;;;;20.00;38.93;96124.84;10290217;28;20614;-58
2022/04/04 13:41:50;;;;;;;10.70;5.50;;;;;;;20.01;38.83;96116.38;10296978;28;20054;-59
2022/04/04 13:47:10;;;;;;;10.80;5.50;;;;;;;20.03;38.77;96110.63;10287597;28;20498;-58
2022/04/04 13:52:30;;;;;;;12.40;5.30;;;;;;;20.05;38.69;96081.31;10302998;28;20043;-59
2022/04/04 13:57:50;;;;;;;9.55;4.95;;;;;;;20.05;38.77;96065.09;10288559;28;20054;-57
2022/04/04 14:03:10;;;;;;;10.00;5.13;;;;;;;20.07;38.52;96052.03;10303786;28;20101;-58
2022/04/04 14:08:30;;;;;;;6.88;3.97;;;;;;;20.10;38.61;96051.34;10286034;28;20051;-59
2022/04/04 14:13:50;;;;;;;8.13;4.50;;;;;;;20.09;38.68;96037.03;10290251;28;20055;-57
2022/04/04 14:19:09;;;;;;;7.35;4.18;;;;;;;20.10;38.65;96032.41;10290542;28;20081;-59
2022/04/04 14:24:29;;;;;;;8.63;4.65;;;;;;;20.11;38.55;96009.63;10281233;28;20061;-59
2022/04/04 14:29:49;;;;;;;7.28;4.00;;;;;;;20.11;38.50;96012.34;10266334;28;20058;-58
2022/04/04 14:35:09;;;;;;;5.70;3.47;;;;;;;20.11;38.34;95991.50;10298813;28;20413;-58
2022/04/04 14:40:29;;;;;;;4.47;2.85;;;;;;;20.12;38.54;95973.38;10279861;28;20051;-58
2022/04/04 14:45:49;;;;;;;3.75;2.40;;;;;;;20.11;35.75;95964.47;10295665;28;20043;-58
2022/04/04 14:51:13;;;;;;;3.60;2.30;;;;;;;20.07;29.86;95958.19;10282624;28;20410;-58
2022/04/04 14:56:32;;;;;;;3.35;2.40;;;;;;;19.99;28.43;95959.13;10289546;28;20058;-59
2022/04/04 15:01:52;;;;;;;2.63;2.00;;;;;;;19.87;23.76;95965.38;10312312;28;20042;-59
2022/04/04 15:07:13;;;;;;;2.35;2.10;;;;;;;19.72;22.55;95936.44;10289776;28;20060;-58
2022/04/04 15:12:33;;;;;;;2.25;1.83;;;;;;;19.64;25.49;95919.22;10282960;28;20117;-58
2022/04/04 15:17:53;;;;;;;1.85;1.35;;;;;;;19.70;28.18;95925.16;10293404;28;20057;-57
2022/04/04 15:23:13;;;;;;;2.85;1.80;;;;;;;19.76;29.24;95926.50;10279458;28;20047;-57
2022/04/04 15:28:33;;;;;;;3.47;1.90;;;;;;;19.83;30.00;95920.47;10280686;28;20133;-59
2022/04/04 15:33:53;;;;;;;2.65;1.45;;;;;;;19.88;30.73;95922.94;10279286;28;20490;-58
2022/04/04 15:39:15;;;;;;;2.22;1.33;;;;;;;19.91;31.31;95912.19;10282221;28;20058;-58
2022/04/04 15:44:36;;;;;;;4.05;1.70;;;;;;;19.94;31.90;95905.34;10293996;28;20043;-58
2022/04/04 15:49:56;;;;;;;3.08;1.33;;;;;;;19.98;32.37;95916.25;10279787;28;20494;-59
2022/04/04 15:55:16;;;;;;;2.20;1.23;;;;;;;20.01;32.94;95905.50;10275941;28;20043;-57
2022/04/04 16:00:37;;;;;;;2.55;1.20;;;;;;;20.04;33.43;95899.41;10299958;28;20049;-55
2022/04/04 16:05:58;;;;;;;2.28;1.10;;;;;;;20.07;33.67;95903.31;10278788;28;20047;-56
2022/04/04 16:11:19;;;;;;;2.72;1.08;;;;;;;20.12;33.67;95889.53;10278750;28;20059;-57
2022/04/04 16:16:39;;;;;;;1.33;1.05;;;;;;;20.14;34.04;95888.03;10273482;28;20061;-56
2022/04/04 16:21:59;;;;;;;2.63;1.10;;;;;;;20.18;34.13;95871.91;10278512;28;20506;-56
2022/04/04 16:27:18;;;;;;;1.13;0.90;;;;;;;20.21;34.27;95871.22;10279420;28;20062;-57
2022/04/04 16:32:38;;;;;;;4.80;1.00;;;;;;;20.22;34.62;95875.47;10293035;28;20038;-53
2022/04/04 16:37:59;;;;;;;2.92;1.00;;;;;;;20.22;34.74;95872.78;10295250;28;20042;-58
2022/04/04 16:43:19;;;;;;;3.03;1.20;;;;;;;20.24;35.00;95848.88;10282890;28;20054;-57
2022/04/04 16:48:39;;;;;;;4.85;1.15;;;;;;;20.24;35.26;95865.09;10290709;28;20066;-53
2022/04/04 16:53:59;;;;;;;4.25;1.10;;;;;;;20.24;35.51;95867.81;10290965;28;20046;-57
2022/04/04 16:59:19;;;;;;;3.72;1.00;;;;;;;20.25;35.81;95850.47;10296258;28;20130;-57
2022/04/04 17:04:38;;;;;;;2.17;0.93;;;;;;;20.24;36.07;95854.28;10302100;28;20034;-59
2022/04/04 17:10:01;;;;;;;1.60;0.88;;;;;;;20.25;36.53;95863.97;10297359;28;20046;-59
2022/04/04 17:15:22;;;;;;;1.95;0.90;;;;;;;20.26;36.81;95862.06;10286368;28;20046;-57
2022/04/04 17:20:43;;;;;;;2.03;1.15;;;;;;;20.26;37.03;95868.22;10287811;28;20043;-58
2022/04/04 17:26:02;;;;;;;3.42;1.00;;;;;;;20.26;35.71;95862.81;10280368;28;20055;-60
2022/04/04 17:31:22;;;;;;;2.50;1.02;;;;;;;20.25;36.32;95866.69;10286533;28;20050;-53
2022/04/04 17:36:45;;;;;;;2.55;1.13;;;;;;;20.25;36.71;95871.31;10288504;28;20411;-57
2022/04/04 17:42:05;;;;;;;1.13;0.93;;;;;;;20.23;36.66;95873.56;10282086;28;20418;-58
2022/04/04 17:47:25;;;;;;;2.10;0.82;;;;;;;20.23;36.58;95882.47;10277761;28;20046;-58
2022/04/04 17:52:44;;;;;;;5.25;1.30;;;;;;;20.22;36.66;95880.88;10304471;28;20047;-57
2022/04/04 17:58:04;;;;;;;1.55;1.00;;;;;;;20.22;36.56;95894.41;10297016;28;20045;-58
2022/04/04 18:03:24;;;;;;;2.97;1.02;;;;;;;20.21;36.42;95911.78;10287891;28;20046;-59
2022/04/04 18:08:46;;;;;;;2.72;0.90;;;;;;;20.21;36.41;95908.28;10301118;28;20061;-59
2022/04/04 18:14:06;;;;;;;1.77;1.02;;;;;;;20.19;36.45;95903.25;10285434;28;20113;-59
2022/04/04 18:19:26;;;;;;;2.72;0.90;;;;;;;20.19;36.35;95905.94;10286642;28;20051;-59
2022/04/04 18:24:46;;;;;;;5.82;1.60;;;;;;;20.19;36.22;95905.13;10285854;28;20066;-59
2022/04/04 18:30:07;;;;;;;1.88;1.05;;;;;;;20.19;36.25;95894.31;10282806;28;20050;-59
2022/04/04 18:35:26;;;;;;;0.90;0.80;;;;;;;20.18;36.34;95898.19;10289826;28;20117;-58
2022/04/04 18:40:47;;;;;;;2.22;1.10;;;;;;;20.17;36.32;95886.59;10287846;28;20058;-58
2022/04/04 18:46:07;;;;;;;1.90;0.80;;;;;;;20.17;36.02;95891.19;10290180;28;20050;-58
2022/04/04 18:51:27;;;;;;;2.00;0.95;;;;;;;20.15;36.00;95876.13;10289378;28;20062;-58
2022/04/04 18:56:47;;;;;;;0.82;0.80;;;;;;;20.15;36.06;95870.69;10288021;28;20057;-58
2022/04/04 19:02:06;;;;;;;1.17;1.00;;;;;;;20.12;36.26;95860.56;10289024;28;20398;-56
2022/04/04 19:07:26;;;;;;;1.70;1.10;;;;;;;20.13;36.22;95845.13;10257059;28;20509;-55
2022/04/04 19:12:46;;;;;;;2.75;1.30;;;;;;;20.12;36.38;95835.47;10296944;28;20074;-58
2022/04/04 19:18:06;;;;;;;3.22;1.05;;;;;;;20.12;36.51;95835.47;10274029;28;20442;-59
2022/04/04 19:23:26;;;;;;;2.25;1.02;;;;;;;20.10;36.62;95821.50;10282946;28;20063;-58
2022/04/04 19:28:47;;;;;;;4.10;1.30;;;;;;;20.09;37.05;95815.31;10278160;28;20514;-59
2022/04/04 19:34:09;;;;;;;2.60;0.90;;;;;;;20.07;37.18;95812.19;10283099;28;20052;-59
2022/04/04 19:39:29;;;;;;;3.10;1.00;;;;;;;20.06;37.19;95810.59;10280133;28;20051;-58
2022/04/04 19:44:48;;;;;;;2.05;1.30;;;;;;;20.06;37.35;95805.19;10285895;28;20042;-59
2022/04/04 19:50:09;;;;;;;3.22;1.30;;;;;;;20.04;37.51;95801.28;10289391;28;20108;-59
2022/04/04 19:55:28;;;;;;;1.85;1.10;;;;;;;20.02;37.55;95798.16;10288034;28;20444;-61
2022/04/04 20:00:49;;;;;;;4.53;1.30;;;;;;;20.01;37.77;95800.06;10289238;28;20062;-58
2022/04/04 20:06:08;;;;;;;2.17;1.10;;;;;;;20.00;37.77;95789.63;10285073;28;20051;-59
2022/04/04 20:11:28;;;;;;;2.53;1.30;;;;;;;19.98;37.92;95778.38;10283563;28;20060;-58
2022/04/04 20:16:48;;;;;;;2.35;1.27;;;;;;;19.95;38.09;95783.34;10279364;28;20086;-58
2022/04/04 20:22:10;;;;;;;3.15;1.20;;;;;;;19.95;38.07;95772.53;10282254;28;20055;-59
2022/04/04 20:27:29;;;;;;;1.67;1.00;;;;;;;19.95;38.12;95777.13;10258778;28;20058;-57
2022/04/04 20:32:49;;;;;;;1.98;0.90;;;;;;;19.94;38.10;95756.66;10287146;28;20046;-59
2022/04/04 20:38:08;;;;;;;2.13;1.20;;;;;;;19.93;37.96;95758.59;10306060;28;20038;-57
2022/04/04 20:43:29;;;;;;;2.15;0.90;;;;;;;19.93;37.97;95757.78;10292937;28;20047;-59
2022/04/04 20:48:49;;;;;;;2.53;1.13;;;;;;;19.91;38.16;95744.59;10299838;28;20042;-58
2022/04/04 20:54:09;;;;;;;3.65;1.50;;;;;;;19.90;38.20;95736.88;10314172;28;20050;-59
2022/04/04 20:59:29;;;;;;;3.53;1.20;;;;;;;19.88;38.21;95734.50;10292482;28;20104;-59
2022/04/04 21:04:49;;;;;;;2.13;1.23;;;;;;;19.87;38.19;95735.63;10296440;28;20043;-58
2022/04/04 21:10:09;;;;;;;2.83;1.10;;;;;;;19.86;38.27;95736.78;10304128;28;20039;-58
2022/04/04 21:15:28;;;;;;;1.58;1.05;;;;;;;19.85;38.38;95732.50;10301743;28;20061;-57
2022/04/04 21:20:48;;;;;;;1.95;1.10;;;;;;;19.85;38.47;95734.44;10302744;28;20057;-57
2022/04/04 21:26:10;;;;;;;1.58;1.00;;;;;;;19.83;38.29;95737.47;10293422;28;20430;-58
2022/04/04 21:31:30;;;;;;;1.67;1.00;;;;;;;19.81;38.42;95734.34;10289748;28;20086;-58
2022/04/04 21:36:50;;;;;;;1.40;0.90;;;;;;;19.81;38.31;95728.94;10308749;28;20046;-58
2022/04/04 21:42:10;;;;;;;2.28;1.00;;;;;;;19.80;38.32;95726.59;10323925;28;20430;-58
2022/04/04 21:47:29;;;;;;;2.78;0.98;;;;;;;19.77;38.28;95719.97;10309332;28;20678;-58
2022/04/04 21:52:49;;;;;;;1.85;0.93;;;;;;;19.76;38.38;95718.41;10292273;28;20065;-58
2022/04/04 21:58:10;;;;;;;1.23;0.90;;;;;;;19.74;38.16;95710.66;10335966;28;20043;-58
2022/04/04 22:03:29;;;;;;;1.58;0.90;;;;;;;19.74;38.32;95709.88;10307333;28;20043;-58
2022/04/04 22:08:49;;;;;;;1.13;1.00;;;;;;;19.73;38.35;95709.06;10292152;28;20480;-59
2022/04/04 22:14:09;;;;;;;1.38;0.98;;;;;;;19.71;38.31;95707.84;10305891;28;20053;-58
2022/04/04 22:19:28;;;;;;;2.13;0.73;;;;;;;19.71;38.16;95724.06;10291630;28;20062;-59
2022/04/04 22:24:48;;;;;;;0.93;0.70;;;;;;;19.68;38.19;95708.53;10290532;28;20114;-58
2022/04/04 22:30:08;;;;;;;1.75;1.00;;;;;;;19.67;38.26;95704.28;10289587;28;20399;-59
2022/04/04 22:35:27;;;;;;;1.35;0.93;;;;;;;19.66;38.13;95711.59;10289092;28;20058;-59
2022/04/04 22:40:48;;;;;;;1.33;0.80;;;;;;;19.64;38.01;95707.66;10303933;28;20051;-59
2022/04/04 22:46:07;;;;;;;0.93;0.70;;;;;;;19.62;38.03;95699.13;10279801;28;20417;-59
2022/04/04 22:51:26;;;;;;;0.80;0.70;;;;;;;19.61;38.03;95686.78;10288808;28;20062;-59
2022/04/04 22:56:45;;;;;;;2.67;1.20;;;;;;;19.60;37.97;95685.19;10285169;28;20067;-59
2022/04/04 23:02:05;;;;;;;1.55;0.90;;;;;;;19.58;37.52;95682.06;10301929;28;20097;-58
2022/04/04 23:07:24;;;;;;;2.65;0.88;;;;;;;19.56;37.98;95685.91;10300209;28;20043;-57
2022/04/04 23:12:44;;;;;;;2.22;1.17;;;;;;;19.54;37.78;95677.38;10288981;28;20494;-57
2022/04/04 23:18:03;;;;;;;1.52;0.80;;;;;;;19.53;37.75;95673.09;10280007;28;20061;-58
2022/04/04 23:23:22;;;;;;;1.30;0.88;;;;;;;19.51;37.78;95661.84;10300903;28;20042;-58
2022/04/04 23:28:42;;;;;;;1.02;0.68;;;;;;;19.50;37.89;95660.31;10286296;28;20403;-58
2022/04/04 23:34:02;;;;;;;1.08;0.68;;;;;;;19.49;37.99;95674.94;10289965;28;20252;-58
2022/04/04 23:39:22;;;;;;;0.90;0.70;;;;;;;19.48;37.80;95673.38;10309025;28;20042;-58
2022/04/04 23:44:41;;;;;;;0.80;0.80;;;;;;;19.47;37.78;95661.00;10284608;28;20121;-57
2022/04/04 23:50:01;;;;;;;1.40;0.70;;;;;;;19.46;37.86;95655.94;10278725;28;20059;-59
2022/04/04 23:55:22;;;;;;;1.35;0.73;;;;;;;19.44;37.68;95671.72;10287145;28;20062;-58
